Hovedside
METAR-TAF:

METAR-TAF

Lufthavner :

Trondheim lufthavn. Værnes

Trondheim, Norge

breddegrad: 63-28N, lengdegrad: 010-56E, høyde over havet: 1 m

Gjeldene værobservasjon

Denne rapporten ble laget for 11 minutter siden, klokken 14:50 UTC
Vind 5 kt fra Øst-sørøst
Temperatur -7°C
Luftfuktighet 93%
Trykk 1012 hPa
Sikt 10 km eller mer
Få skyer i en høyde av 2000 ft
Brutte skyer i en høyde av 3000 ft

METAR: ENVA 211450Z 11005KT 9999 FEW020 BKN030 M07/M08 Q1012 TEMPO 2000 SN VV009 RMK WIND 670FT VRB03KT

Tid: 16:01 (15:01 UTC)

Varsel

Varsel gyldig fra 21. klokken 12 UTC til 22. klokken 12 UTC
Vind 8 kt fra Øst-sørøst
Sikt 10 km eller mer
Få skyer i en høyde av 2000 ft
Brutte skyer i en høyde av 4000 ft
Sannsynlighet 40%
fra 21. klokken 12 UTC til 21. klokken 20 UTC
Sikt: 2000 m
i en høyde av 900 ft
snø

TAF: ENVA 2112/2212 12008KT 9999 FEW020 BKN040 PROB40 2112/2120 2000 SN VV009

Værobservasjoner og værvarsel for over 4000 flyplasser (METAR- og TAF-rapporter).

Tilgjengelige stasjoner er representert av de røde og gule prikkene på kartet.

Hold musepekeren over prikken for å se navnet på stasjonen.

Klikk så for å se værobservasjoner og -varsler.

For å forandre kartet kan du klikke på den grønne knappen med svart kryss for å zoome inn, på den grønne knappen med strek for å zoome ut, eller på de grønne pilene for å se tilstøtende kart.


METAR-TAF: